sensor_id;sensor_type;location;lat;lon;timestamp;P1;durP1;ratioP1;P2;durP2;ratioP2
72105;SDS011;59975;47.646;18.318;2023-03-05T00:01:09;16.20;;;7.78;;
72105;SDS011;59975;47.646;18.318;2023-03-05T00:03:37;17.45;;;8.50;;
72105;SDS011;59975;47.646;18.318;2023-03-05T00:06:02;16.30;;;7.33;;
72105;SDS011;59975;47.646;18.318;2023-03-05T00:08:29;14.57;;;7.95;;
72105;SDS011;59975;47.646;18.318;2023-03-05T00:10:56;16.48;;;6.85;;
72105;SDS011;59975;47.646;18.318;2023-03-05T00:13:29;14.15;;;6.63;;
72105;SDS011;59975;47.646;18.318;2023-03-05T00:15:55;14.97;;;7.03;;
72105;SDS011;59975;47.646;18.318;2023-03-05T00:18:22;12.68;;;6.65;;
72105;SDS011;59975;47.646;18.318;2023-03-05T00:20:47;15.02;;;5.55;;
72105;SDS011;59975;47.646;18.318;2023-03-05T00:23:13;13.60;;;6.13;;
72105;SDS011;59975;47.646;18.318;2023-03-05T00:25:39;14.98;;;6.88;;
72105;SDS011;59975;47.646;18.318;2023-03-05T00:28:05;14.98;;;7.30;;
72105;SDS011;59975;47.646;18.318;2023-03-05T00:30:32;11.50;;;5.97;;
72105;SDS011;59975;47.646;18.318;2023-03-05T00:32:59;14.13;;;6.80;;
72105;SDS011;59975;47.646;18.318;2023-03-05T00:35:25;16.25;;;7.20;;
72105;SDS011;59975;47.646;18.318;2023-03-05T00:37:51;18.73;;;5.80;;
72105;SDS011;59975;47.646;18.318;2023-03-05T00:40:17;15.88;;;6.22;;
72105;SDS011;59975;47.646;18.318;2023-03-05T00:42:43;15.80;;;6.28;;
72105;SDS011;59975;47.646;18.318;2023-03-05T00:45:09;15.13;;;6.47;;
72105;SDS011;59975;47.646;18.318;2023-03-05T00:47:35;12.75;;;6.55;;
72105;SDS011;59975;47.646;18.318;2023-03-05T00:50:01;10.15;;;5.43;;
72105;SDS011;59975;47.646;18.318;2023-03-05T00:52:27;13.35;;;6.30;;
72105;SDS011;59975;47.646;18.318;2023-03-05T00:54:53;13.85;;;6.53;;
72105;SDS011;59975;47.646;18.318;2023-03-05T00:57:18;10.90;;;5.37;;
72105;SDS011;59975;47.646;18.318;2023-03-05T00:59:44;14.00;;;6.63;;
72105;SDS011;59975;47.646;18.318;2023-03-05T01:02:10;14.48;;;7.05;;
72105;SDS011;59975;47.646;18.318;2023-03-05T01:04:35;15.25;;;6.30;;
72105;SDS011;59975;47.646;18.318;2023-03-05T01:07:02;14.70;;;6.90;;
72105;SDS011;59975;47.646;18.318;2023-03-05T01:09:28;13.75;;;5.70;;
72105;SDS011;59975;47.646;18.318;2023-03-05T01:11:54;16.90;;;6.30;;
72105;SDS011;59975;47.646;18.318;2023-03-05T01:14:20;12.37;;;5.63;;
72105;SDS011;59975;47.646;18.318;2023-03-05T01:16:45;13.02;;;6.07;;
72105;SDS011;59975;47.646;18.318;2023-03-05T01:19:11;12.57;;;5.90;;
72105;SDS011;59975;47.646;18.318;2023-03-05T01:21:38;12.68;;;6.05;;
72105;SDS011;59975;47.646;18.318;2023-03-05T01:24:04;14.27;;;6.13;;
72105;SDS011;59975;47.646;18.318;2023-03-05T01:26:30;17.00;;;6.68;;
72105;SDS011;59975;47.646;18.318;2023-03-05T01:28:56;15.67;;;5.47;;
72105;SDS011;59975;47.646;18.318;2023-03-05T01:31:21;14.60;;;5.80;;
72105;SDS011;59975;47.646;18.318;2023-03-05T01:33:47;14.98;;;5.85;;
72105;SDS011;59975;47.646;18.318;2023-03-05T01:36:13;14.90;;;6.68;;
72105;SDS011;59975;47.646;18.318;2023-03-05T01:38:44;10.90;;;6.05;;
72105;SDS011;59975;47.646;18.318;2023-03-05T01:41:11;13.27;;;5.70;;
72105;SDS011;59975;47.646;18.318;2023-03-05T01:43:38;14.18;;;6.57;;
72105;SDS011;59975;47.646;18.318;2023-03-05T01:46:16;11.93;;;5.72;;
72105;SDS011;59975;47.646;18.318;2023-03-05T01:49:00;10.73;;;5.25;;
72105;SDS011;59975;47.646;18.318;2023-03-05T01:51:41;13.85;;;6.57;;
72105;SDS011;59975;47.646;18.318;2023-03-05T01:54:20;15.45;;;5.93;;
72105;SDS011;59975;47.646;18.318;2023-03-05T01:56:49;11.10;;;5.55;;
72105;SDS011;59975;47.646;18.318;2023-03-05T01:59:17;13.25;;;6.18;;
72105;SDS011;59975;47.646;18.318;2023-03-05T02:01:45;10.77;;;5.75;;
72105;SDS011;59975;47.646;18.318;2023-03-05T02:04:13;15.88;;;6.25;;
72105;SDS011;59975;47.646;18.318;2023-03-05T02:06:41;13.80;;;6.15;;
72105;SDS011;59975;47.646;18.318;2023-03-05T02:09:07;15.25;;;6.78;;
72105;SDS011;59975;47.646;18.318;2023-03-05T02:11:34;14.70;;;6.75;;
72105;SDS011;59975;47.646;18.318;2023-03-05T02:14:00;18.58;;;5.95;;
72105;SDS011;59975;47.646;18.318;2023-03-05T02:16:27;13.80;;;6.78;;
72105;SDS011;59975;47.646;18.318;2023-03-05T02:18:59;13.93;;;6.68;;
72105;SDS011;59975;47.646;18.318;2023-03-05T02:21:26;17.00;;;7.47;;
72105;SDS011;59975;47.646;18.318;2023-03-05T02:23:54;13.02;;;5.88;;
72105;SDS011;59975;47.646;18.318;2023-03-05T02:26:19;14.10;;;6.60;;
72105;SDS011;59975;47.646;18.318;2023-03-05T02:28:49;16.75;;;6.07;;
72105;SDS011;59975;47.646;18.318;2023-03-05T02:31:20;14.20;;;5.97;;
72105;SDS011;59975;47.646;18.318;2023-03-05T02:33:47;15.45;;;6.40;;
72105;SDS011;59975;47.646;18.318;2023-03-05T02:36:13;13.07;;;5.63;;
72105;SDS011;59975;47.646;18.318;2023-03-05T02:38:40;16.15;;;6.03;;
72105;SDS011;59975;47.646;18.318;2023-03-05T02:41:06;11.07;;;4.90;;
72105;SDS011;59975;47.646;18.318;2023-03-05T02:43:32;15.90;;;6.00;;
72105;SDS011;59975;47.646;18.318;2023-03-05T02:45:57;13.73;;;5.95;;
72105;SDS011;59975;47.646;18.318;2023-03-05T02:48:23;12.67;;;6.50;;
72105;SDS011;59975;47.646;18.318;2023-03-05T02:50:49;14.57;;;6.37;;
72105;SDS011;59975;47.646;18.318;2023-03-05T02:53:14;14.27;;;6.00;;
72105;SDS011;59975;47.646;18.318;2023-03-05T02:55:40;14.77;;;5.63;;
72105;SDS011;59975;47.646;18.318;2023-03-05T02:58:05;17.17;;;7.27;;
72105;SDS011;59975;47.646;18.318;2023-03-05T03:00:31;13.88;;;5.65;;
72105;SDS011;59975;47.646;18.318;2023-03-05T03:02:56;12.82;;;6.07;;
72105;SDS011;59975;47.646;18.318;2023-03-05T03:05:22;15.30;;;7.13;;
72105;SDS011;59975;47.646;18.318;2023-03-05T03:07:48;12.65;;;5.82;;
72105;SDS011;59975;47.646;18.318;2023-03-05T03:10:13;15.37;;;6.60;;
72105;SDS011;59975;47.646;18.318;2023-03-05T03:12:39;14.95;;;5.97;;
72105;SDS011;59975;47.646;18.318;2023-03-05T03:15:06;10.07;;;5.45;;
72105;SDS011;59975;47.646;18.318;2023-03-05T03:17:35;13.97;;;5.77;;
72105;SDS011;59975;47.646;18.318;2023-03-05T03:20:02;15.13;;;6.32;;
72105;SDS011;59975;47.646;18.318;2023-03-05T03:22:30;15.38;;;6.45;;
72105;SDS011;59975;47.646;18.318;2023-03-05T03:24:56;12.57;;;5.50;;
72105;SDS011;59975;47.646;18.318;2023-03-05T03:27:22;15.05;;;6.40;;
72105;SDS011;59975;47.646;18.318;2023-03-05T03:29:47;16.00;;;7.03;;
72105;SDS011;59975;47.646;18.318;2023-03-05T03:32:13;16.50;;;6.97;;
72105;SDS011;59975;47.646;18.318;2023-03-05T03:34:39;14.48;;;6.80;;
72105;SDS011;59975;47.646;18.318;2023-03-05T03:37:05;16.63;;;6.87;;
72105;SDS011;59975;47.646;18.318;2023-03-05T03:39:30;18.90;;;7.45;;
72105;SDS011;59975;47.646;18.318;2023-03-05T03:41:56;13.63;;;7.20;;
72105;SDS011;59975;47.646;18.318;2023-03-05T03:44:22;14.63;;;7.80;;
72105;SDS011;59975;47.646;18.318;2023-03-05T03:46:48;13.75;;;6.63;;
72105;SDS011;59975;47.646;18.318;2023-03-05T03:49:15;13.40;;;6.10;;
72105;SDS011;59975;47.646;18.318;2023-03-05T03:51:48;16.83;;;7.47;;
72105;SDS011;59975;47.646;18.318;2023-03-05T03:54:15;17.20;;;7.30;;
72105;SDS011;59975;47.646;18.318;2023-03-05T03:56:42;13.77;;;6.53;;
72105;SDS011;59975;47.646;18.318;2023-03-05T03:59:08;15.10;;;8.07;;
72105;SDS011;59975;47.646;18.318;2023-03-05T04:01:33;17.00;;;6.75;;
72105;SDS011;59975;47.646;18.318;2023-03-05T04:03:59;13.77;;;6.63;;
72105;SDS011;59975;47.646;18.318;2023-03-05T04:06:25;15.57;;;7.22;;
72105;SDS011;59975;47.646;18.318;2023-03-05T04:08:50;21.23;;;8.87;;
72105;SDS011;59975;47.646;18.318;2023-03-05T04:11:16;16.13;;;7.38;;
72105;SDS011;59975;47.646;18.318;2023-03-05T04:13:43;12.07;;;6.78;;
72105;SDS011;59975;47.646;18.318;2023-03-05T04:16:10;21.20;;;8.52;;
72105;SDS011;59975;47.646;18.318;2023-03-05T04:18:35;17.27;;;7.40;;
72105;SDS011;59975;47.646;18.318;2023-03-05T04:21:01;18.10;;;6.53;;
72105;SDS011;59975;47.646;18.318;2023-03-05T04:23:27;17.67;;;7.55;;
72105;SDS011;59975;47.646;18.318;2023-03-05T04:25:52;15.73;;;7.47;;
72105;SDS011;59975;47.646;18.318;2023-03-05T04:28:18;21.60;;;8.13;;
72105;SDS011;59975;47.646;18.318;2023-03-05T04:30:43;16.43;;;7.83;;
72105;SDS011;59975;47.646;18.318;2023-03-05T04:33:09;15.52;;;6.57;;
72105;SDS011;59975;47.646;18.318;2023-03-05T04:35:34;16.97;;;7.77;;
72105;SDS011;59975;47.646;18.318;2023-03-05T04:38:00;17.07;;;8.17;;
72105;SDS011;59975;47.646;18.318;2023-03-05T04:40:25;18.42;;;7.03;;
72105;SDS011;59975;47.646;18.318;2023-03-05T04:42:51;15.67;;;7.57;;
72105;SDS011;59975;47.646;18.318;2023-03-05T04:45:16;22.37;;;8.27;;
72105;SDS011;59975;47.646;18.318;2023-03-05T04:47:42;18.50;;;7.88;;
72105;SDS011;59975;47.646;18.318;2023-03-05T04:50:08;16.57;;;8.03;;
72105;SDS011;59975;47.646;18.318;2023-03-05T04:52:40;18.30;;;8.10;;
72105;SDS011;59975;47.646;18.318;2023-03-05T04:55:07;18.80;;;7.65;;
72105;SDS011;59975;47.646;18.318;2023-03-05T04:57:33;17.95;;;7.90;;
72105;SDS011;59975;47.646;18.318;2023-03-05T04:59:59;16.33;;;7.40;;
72105;SDS011;59975;47.646;18.318;2023-03-05T05:02:25;18.70;;;8.32;;
72105;SDS011;59975;47.646;18.318;2023-03-05T05:04:53;18.50;;;8.53;;
72105;SDS011;59975;47.646;18.318;2023-03-05T05:07:19;18.30;;;6.97;;
72105;SDS011;59975;47.646;18.318;2023-03-05T05:09:45;19.55;;;8.65;;
72105;SDS011;59975;47.646;18.318;2023-03-05T05:12:10;17.23;;;7.90;;
72105;SDS011;59975;47.646;18.318;2023-03-05T05:14:36;19.53;;;8.33;;
72105;SDS011;59975;47.646;18.318;2023-03-05T05:17:02;16.83;;;8.05;;
72105;SDS011;59975;47.646;18.318;2023-03-05T05:19:31;19.33;;;8.50;;
72105;SDS011;59975;47.646;18.318;2023-03-05T05:21:57;18.92;;;8.02;;
72105;SDS011;59975;47.646;18.318;2023-03-05T05:24:22;16.52;;;8.50;;
72105;SDS011;59975;47.646;18.318;2023-03-05T05:26:48;24.25;;;10.23;;
72105;SDS011;59975;47.646;18.318;2023-03-05T05:29:13;19.37;;;7.93;;
72105;SDS011;59975;47.646;18.318;2023-03-05T05:31:39;19.77;;;7.60;;
72105;SDS011;59975;47.646;18.318;2023-03-05T05:34:05;16.30;;;6.95;;
72105;SDS011;59975;47.646;18.318;2023-03-05T05:36:30;17.60;;;7.50;;
72105;SDS011;59975;47.646;18.318;2023-03-05T05:38:56;20.10;;;8.63;;
72105;SDS011;59975;47.646;18.318;2023-03-05T05:41:21;14.02;;;7.07;;
72105;SDS011;59975;47.646;18.318;2023-03-05T05:43:47;22.37;;;8.30;;
72105;SDS011;59975;47.646;18.318;2023-03-05T05:46:14;20.52;;;8.45;;
72105;SDS011;59975;47.646;18.318;2023-03-05T05:48:41;20.50;;;7.30;;
72105;SDS011;59975;47.646;18.318;2023-03-05T05:51:09;18.95;;;9.60;;
72105;SDS011;59975;47.646;18.318;2023-03-05T05:53:37;18.35;;;8.38;;
72105;SDS011;59975;47.646;18.318;2023-03-05T05:56:03;19.20;;;9.20;;
72105;SDS011;59975;47.646;18.318;2023-03-05T05:58:30;17.80;;;7.90;;
72105;SDS011;59975;47.646;18.318;2023-03-05T06:00:55;22.48;;;9.85;;
72105;SDS011;59975;47.646;18.318;2023-03-05T06:03:21;18.60;;;8.47;;
72105;SDS011;59975;47.646;18.318;2023-03-05T06:05:46;18.30;;;8.77;;
72105;SDS011;59975;47.646;18.318;2023-03-05T06:08:12;17.80;;;8.48;;
72105;SDS011;59975;47.646;18.318;2023-03-05T06:10:37;20.40;;;8.87;;
72105;SDS011;59975;47.646;18.318;2023-03-05T06:13:03;18.25;;;7.88;;
72105;SDS011;59975;47.646;18.318;2023-03-05T06:15:29;20.02;;;8.43;;
72105;SDS011;59975;47.646;18.318;2023-03-05T06:17:54;20.15;;;8.68;;
72105;SDS011;59975;47.646;18.318;2023-03-05T06:20:20;17.77;;;7.47;;
72105;SDS011;59975;47.646;18.318;2023-03-05T06:22:45;19.73;;;9.03;;
72105;SDS011;59975;47.646;18.318;2023-03-05T06:25:11;15.63;;;7.45;;
72105;SDS011;59975;47.646;18.318;2023-03-05T06:27:37;21.90;;;8.50;;
72105;SDS011;59975;47.646;18.318;2023-03-05T06:30:03;16.98;;;8.02;;
72105;SDS011;59975;47.646;18.318;2023-03-05T06:32:30;18.15;;;8.48;;
72105;SDS011;59975;47.646;18.318;2023-03-05T06:34:56;21.77;;;9.20;;
72105;SDS011;59975;47.646;18.318;2023-03-05T06:37:21;19.00;;;9.23;;
72105;SDS011;59975;47.646;18.318;2023-03-05T06:39:47;20.80;;;9.30;;
72105;SDS011;59975;47.646;18.318;2023-03-05T06:42:12;20.63;;;9.70;;
72105;SDS011;59975;47.646;18.318;2023-03-05T06:44:38;22.65;;;9.95;;
72105;SDS011;59975;47.646;18.318;2023-03-05T06:47:05;25.13;;;9.03;;
72105;SDS011;59975;47.646;18.318;2023-03-05T06:49:31;20.60;;;9.25;;
72105;SDS011;59975;47.646;18.318;2023-03-05T06:51:57;19.33;;;8.52;;
72105;SDS011;59975;47.646;18.318;2023-03-05T06:54:22;19.43;;;8.27;;
72105;SDS011;59975;47.646;18.318;2023-03-05T06:56:48;18.30;;;7.90;;
72105;SDS011;59975;47.646;18.318;2023-03-05T06:59:14;22.47;;;9.13;;
72105;SDS011;59975;47.646;18.318;2023-03-05T07:01:41;20.65;;;9.55;;
72105;SDS011;59975;47.646;18.318;2023-03-05T07:04:07;23.25;;;9.45;;
72105;SDS011;59975;47.646;18.318;2023-03-05T07:06:35;20.58;;;9.15;;
72105;SDS011;59975;47.646;18.318;2023-03-05T07:09:02;20.30;;;10.60;;
72105;SDS011;59975;47.646;18.318;2023-03-05T07:11:30;18.23;;;7.23;;
72105;SDS011;59975;47.646;18.318;2023-03-05T07:13:56;25.00;;;10.35;;
72105;SDS011;59975;47.646;18.318;2023-03-05T07:16:26;20.77;;;9.15;;
72105;SDS011;59975;47.646;18.318;2023-03-05T07:18:53;23.58;;;9.25;;
72105;SDS011;59975;47.646;18.318;2023-03-05T07:21:21;20.85;;;8.38;;
72105;SDS011;59975;47.646;18.318;2023-03-05T07:23:48;18.63;;;8.23;;
72105;SDS011;59975;47.646;18.318;2023-03-05T07:26:14;22.17;;;9.50;;
72105;SDS011;59975;47.646;18.318;2023-03-05T07:28:40;22.30;;;9.65;;
72105;SDS011;59975;47.646;18.318;2023-03-05T07:31:09;23.77;;;10.27;;
72105;SDS011;59975;47.646;18.318;2023-03-05T07:33:37;22.60;;;8.53;;
72105;SDS011;59975;47.646;18.318;2023-03-05T07:36:03;21.17;;;9.60;;
72105;SDS011;59975;47.646;18.318;2023-03-05T07:38:31;29.58;;;12.38;;
72105;SDS011;59975;47.646;18.318;2023-03-05T07:41:00;25.83;;;11.35;;
72105;SDS011;59975;47.646;18.318;2023-03-05T07:43:30;16.08;;;8.20;;
72105;SDS011;59975;47.646;18.318;2023-03-05T07:45:55;24.43;;;9.33;;
72105;SDS011;59975;47.646;18.318;2023-03-05T07:48:21;25.40;;;10.33;;
72105;SDS011;59975;47.646;18.318;2023-03-05T07:50:48;20.05;;;10.10;;
72105;SDS011;59975;47.646;18.318;2023-03-05T07:53:14;27.60;;;10.43;;
72105;SDS011;59975;47.646;18.318;2023-03-05T07:55:41;26.15;;;9.52;;
72105;SDS011;59975;47.646;18.318;2023-03-05T07:58:08;21.08;;;9.18;;
72105;SDS011;59975;47.646;18.318;2023-03-05T08:00:34;32.10;;;12.60;;
72105;SDS011;59975;47.646;18.318;2023-03-05T08:02:59;25.73;;;9.63;;
72105;SDS011;59975;47.646;18.318;2023-03-05T08:05:25;15.98;;;7.55;;
72105;SDS011;59975;47.646;18.318;2023-03-05T08:07:50;23.30;;;10.73;;
72105;SDS011;59975;47.646;18.318;2023-03-05T08:10:16;25.15;;;10.45;;
72105;SDS011;59975;47.646;18.318;2023-03-05T08:12:42;19.77;;;9.03;;
72105;SDS011;59975;47.646;18.318;2023-03-05T08:15:07;20.57;;;9.97;;
72105;SDS011;59975;47.646;18.318;2023-03-05T08:17:33;18.42;;;9.35;;
72105;SDS011;59975;47.646;18.318;2023-03-05T08:19:59;20.63;;;9.07;;
72105;SDS011;59975;47.646;18.318;2023-03-05T08:22:29;23.98;;;10.05;;
72105;SDS011;59975;47.646;18.318;2023-03-05T08:24:59;20.98;;;10.45;;
72105;SDS011;59975;47.646;18.318;2023-03-05T08:27:25;27.70;;;10.93;;
72105;SDS011;59975;47.646;18.318;2023-03-05T08:29:50;30.67;;;13.37;;
72105;SDS011;59975;47.646;18.318;2023-03-05T08:32:16;24.07;;;10.97;;
72105;SDS011;59975;47.646;18.318;2023-03-05T08:34:41;25.92;;;10.27;;
72105;SDS011;59975;47.646;18.318;2023-03-05T08:37:07;20.43;;;9.20;;
72105;SDS011;59975;47.646;18.318;2023-03-05T08:39:34;25.70;;;10.18;;
72105;SDS011;59975;47.646;18.318;2023-03-05T08:42:00;19.65;;;10.18;;
72105;SDS011;59975;47.646;18.318;2023-03-05T08:44:26;22.47;;;9.87;;
72105;SDS011;59975;47.646;18.318;2023-03-05T08:46:52;20.20;;;9.20;;
72105;SDS011;59975;47.646;18.318;2023-03-05T08:49:17;19.73;;;8.80;;
72105;SDS011;59975;47.646;18.318;2023-03-05T08:51:43;17.92;;;9.00;;
72105;SDS011;59975;47.646;18.318;2023-03-05T08:54:08;23.93;;;8.57;;
72105;SDS011;59975;47.646;18.318;2023-03-05T08:56:34;19.58;;;9.02;;
72105;SDS011;59975;47.646;18.318;2023-03-05T08:59:01;18.80;;;8.75;;
72105;SDS011;59975;47.646;18.318;2023-03-05T09:01:27;28.80;;;10.48;;
72105;SDS011;59975;47.646;18.318;2023-03-05T09:03:54;17.35;;;8.07;;
72105;SDS011;59975;47.646;18.318;2023-03-05T09:06:21;17.17;;;8.00;;
72105;SDS011;59975;47.646;18.318;2023-03-05T09:08:47;19.77;;;8.73;;
72105;SDS011;59975;47.646;18.318;2023-03-05T09:11:12;15.60;;;8.10;;
72105;SDS011;59975;47.646;18.318;2023-03-05T09:13:38;18.13;;;7.97;;
72105;SDS011;59975;47.646;18.318;2023-03-05T09:16:05;13.23;;;6.05;;
72105;SDS011;59975;47.646;18.318;2023-03-05T09:18:33;16.57;;;7.60;;
72105;SDS011;59975;47.646;18.318;2023-03-05T09:21:04;17.35;;;7.72;;
72105;SDS011;59975;47.646;18.318;2023-03-05T09:23:34;17.77;;;8.18;;
72105;SDS011;59975;47.646;18.318;2023-03-05T09:25:59;16.73;;;7.93;;
72105;SDS011;59975;47.646;18.318;2023-03-05T09:28:25;18.08;;;7.82;;
72105;SDS011;59975;47.646;18.318;2023-03-05T09:30:51;17.13;;;8.00;;
72105;SDS011;59975;47.646;18.318;2023-03-05T09:33:16;18.25;;;8.98;;
72105;SDS011;59975;47.646;18.318;2023-03-05T09:35:42;17.53;;;7.80;;
72105;SDS011;59975;47.646;18.318;2023-03-05T09:38:07;14.60;;;7.53;;
72105;SDS011;59975;47.646;18.318;2023-03-05T09:46:17;18.67;;;7.97;;
72105;SDS011;59975;47.646;18.318;2023-03-05T09:51:59;15.82;;;7.85;;
72105;SDS011;59975;47.646;18.318;2023-03-05T09:54:33;14.77;;;7.88;;
72105;SDS011;59975;47.646;18.318;2023-03-05T09:57:04;15.88;;;7.50;;
72105;SDS011;59975;47.646;18.318;2023-03-05T09:59:45;15.50;;;7.57;;
72105;SDS011;59975;47.646;18.318;2023-03-05T10:02:28;13.27;;;6.28;;
72105;SDS011;59975;47.646;18.318;2023-03-05T10:07:40;15.73;;;7.13;;
72105;SDS011;59975;47.646;18.318;2023-03-05T10:10:11;15.05;;;6.57;;
72105;SDS011;59975;47.646;18.318;2023-03-05T10:12:50;14.40;;;7.03;;
72105;SDS011;59975;47.646;18.318;2023-03-05T10:15:23;15.30;;;7.47;;
72105;SDS011;59975;47.646;18.318;2023-03-05T10:27:06;13.90;;;7.03;;
72105;SDS011;59975;47.646;18.318;2023-03-05T10:29:42;13.80;;;6.00;;
72105;SDS011;59975;47.646;18.318;2023-03-05T10:40:50;11.88;;;5.45;;
72105;SDS011;59975;47.646;18.318;2023-03-05T10:43:35;14.90;;;6.72;;
72105;SDS011;59975;47.646;18.318;2023-03-05T10:46:22;10.70;;;5.90;;
72105;SDS011;59975;47.646;18.318;2023-03-05T10:48:56;12.13;;;6.28;;
72105;SDS011;59975;47.646;18.318;2023-03-05T10:54:18;14.93;;;6.55;;
72105;SDS011;59975;47.646;18.318;2023-03-05T10:57:01;10.13;;;5.30;;
72105;SDS011;59975;47.646;18.318;2023-03-05T10:59:48;9.60;;;5.25;;
72105;SDS011;59975;47.646;18.318;2023-03-05T11:02:16;13.50;;;6.20;;
72105;SDS011;59975;47.646;18.318;2023-03-05T11:04:43;12.85;;;5.88;;
72105;SDS011;59975;47.646;18.318;2023-03-05T11:09:40;9.73;;;5.80;;
72105;SDS011;59975;47.646;18.318;2023-03-05T11:12:13;14.20;;;6.25;;
72105;SDS011;59975;47.646;18.318;2023-03-05T11:15:27;12.20;;;5.90;;
72105;SDS011;59975;47.646;18.318;2023-03-05T11:17:35;13.60;;;6.30;;
72105;SDS011;59975;47.646;18.318;2023-03-05T11:28:20;12.45;;;5.97;;
72105;SDS011;59975;47.646;18.318;2023-03-05T11:39:20;14.43;;;6.53;;
72105;SDS011;59975;47.646;18.318;2023-03-05T11:44:28;10.55;;;6.03;;
72105;SDS011;59975;47.646;18.318;2023-03-05T11:47:03;12.45;;;6.38;;
72105;SDS011;59975;47.646;18.318;2023-03-05T11:49:38;13.77;;;6.22;;
72105;SDS011;59975;47.646;18.318;2023-03-05T11:52:10;11.25;;;6.35;;
72105;SDS011;59975;47.646;18.318;2023-03-05T11:54:50;13.68;;;7.07;;
72105;SDS011;59975;47.646;18.318;2023-03-05T11:57:56;11.20;;;6.13;;
72105;SDS011;59975;47.646;18.318;2023-03-05T12:00:32;12.48;;;5.93;;
72105;SDS011;59975;47.646;18.318;2023-03-05T12:03:01;11.43;;;5.93;;
72105;SDS011;59975;47.646;18.318;2023-03-05T12:05:32;13.82;;;5.40;;
72105;SDS011;59975;47.646;18.318;2023-03-05T12:08:00;11.55;;;5.85;;
72105;SDS011;59975;47.646;18.318;2023-03-05T12:10:26;9.63;;;5.45;;
72105;SDS011;59975;47.646;18.318;2023-03-05T12:18:43;12.98;;;6.20;;
72105;SDS011;59975;47.646;18.318;2023-03-05T12:21:24;10.23;;;5.40;;
72105;SDS011;59975;47.646;18.318;2023-03-05T12:23:58;12.77;;;5.63;;
72105;SDS011;59975;47.646;18.318;2023-03-05T12:29:39;10.05;;;4.80;;
72105;SDS011;59975;47.646;18.318;2023-03-05T12:32:51;13.52;;;5.68;;
72105;SDS011;59975;47.646;18.318;2023-03-05T12:39:57;10.07;;;4.93;;
72105;SDS011;59975;47.646;18.318;2023-03-05T12:47:39;11.48;;;4.63;;
72105;SDS011;59975;47.646;18.318;2023-03-05T12:52:53;15.02;;;4.53;;
72105;SDS011;59975;47.646;18.318;2023-03-05T13:01:13;11.00;;;5.40;;
72105;SDS011;59975;47.646;18.318;2023-03-05T13:03:47;14.70;;;5.07;;
72105;SDS011;59975;47.646;18.318;2023-03-05T13:06:24;11.10;;;5.15;;
72105;SDS011;59975;47.646;18.318;2023-03-05T13:09:13;11.45;;;5.68;;
72105;SDS011;59975;47.646;18.318;2023-03-05T13:11:40;17.63;;;7.28;;
72105;SDS011;59975;47.646;18.318;2023-03-05T13:14:22;10.75;;;5.68;;
72105;SDS011;59975;47.646;18.318;2023-03-05T13:16:56;9.50;;;4.65;;
72105;SDS011;59975;47.646;18.318;2023-03-05T13:19:21;14.35;;;5.70;;
72105;SDS011;59975;47.646;18.318;2023-03-05T13:21:56;13.83;;;5.87;;
72105;SDS011;59975;47.646;18.318;2023-03-05T13:24:26;13.48;;;6.05;;
72105;SDS011;59975;47.646;18.318;2023-03-05T13:26:51;13.50;;;5.75;;
72105;SDS011;59975;47.646;18.318;2023-03-05T13:29:19;12.32;;;5.82;;
72105;SDS011;59975;47.646;18.318;2023-03-05T13:31:56;12.27;;;4.88;;
72105;SDS011;59975;47.646;18.318;2023-03-05T13:34:24;10.27;;;4.63;;
72105;SDS011;59975;47.646;18.318;2023-03-05T13:37:03;13.40;;;5.68;;
72105;SDS011;59975;47.646;18.318;2023-03-05T13:39:34;14.52;;;5.63;;
72105;SDS011;59975;47.646;18.318;2023-03-05T13:42:13;17.35;;;5.72;;
72105;SDS011;59975;47.646;18.318;2023-03-05T13:44:41;16.08;;;6.43;;
72105;SDS011;59975;47.646;18.318;2023-03-05T13:47:16;12.57;;;5.43;;
72105;SDS011;59975;47.646;18.318;2023-03-05T13:49:44;13.88;;;5.15;;
72105;SDS011;59975;47.646;18.318;2023-03-05T13:52:11;12.52;;;5.85;;
72105;SDS011;59975;47.646;18.318;2023-03-05T13:54:47;8.50;;;4.47;;
72105;SDS011;59975;47.646;18.318;2023-03-05T13:57:30;13.90;;;4.90;;
72105;SDS011;59975;47.646;18.318;2023-03-05T14:00:05;8.20;;;4.80;;
72105;SDS011;59975;47.646;18.318;2023-03-05T14:02:48;13.50;;;4.15;;
72105;SDS011;59975;47.646;18.318;2023-03-05T14:05:14;8.87;;;4.10;;
72105;SDS011;59975;47.646;18.318;2023-03-05T14:07:40;11.80;;;4.47;;
72105;SDS011;59975;47.646;18.318;2023-03-05T14:12:52;11.73;;;4.53;;
72105;SDS011;59975;47.646;18.318;2023-03-05T14:15:23;11.10;;;4.25;;
72105;SDS011;59975;47.646;18.318;2023-03-05T14:17:48;9.20;;;4.18;;
72105;SDS011;59975;47.646;18.318;2023-03-05T14:22:50;9.65;;;5.07;;
72105;SDS011;59975;47.646;18.318;2023-03-05T14:25:25;9.18;;;4.15;;
72105;SDS011;59975;47.646;18.318;2023-03-05T14:27:54;11.95;;;4.03;;
72105;SDS011;59975;47.646;18.318;2023-03-05T14:30:21;6.65;;;3.35;;
72105;SDS011;59975;47.646;18.318;2023-03-05T14:32:48;7.82;;;3.47;;
72105;SDS011;59975;47.646;18.318;2023-03-05T14:35:17;10.23;;;4.28;;
72105;SDS011;59975;47.646;18.318;2023-03-05T14:37:45;9.80;;;4.50;;
72105;SDS011;59975;47.646;18.318;2023-03-05T14:45:25;10.80;;;4.55;;
72105;SDS011;59975;47.646;18.318;2023-03-05T14:47:51;8.57;;;4.40;;
72105;SDS011;59975;47.646;18.318;2023-03-05T14:50:19;8.43;;;4.05;;
72105;SDS011;59975;47.646;18.318;2023-03-05T14:52:51;13.13;;;4.80;;
72105;SDS011;59975;47.646;18.318;2023-03-05T14:55:20;11.02;;;4.28;;
72105;SDS011;59975;47.646;18.318;2023-03-05T14:57:48;10.60;;;4.70;;
72105;SDS011;59975;47.646;18.318;2023-03-05T15:00:23;10.00;;;4.32;;
72105;SDS011;59975;47.646;18.318;2023-03-05T15:02:50;9.82;;;4.45;;
72105;SDS011;59975;47.646;18.318;2023-03-05T15:05:16;10.00;;;4.72;;
72105;SDS011;59975;47.646;18.318;2023-03-05T15:07:42;8.13;;;4.45;;
72105;SDS011;59975;47.646;18.318;2023-03-05T15:10:09;7.70;;;3.30;;
72105;SDS011;59975;47.646;18.318;2023-03-05T15:12:39;7.65;;;3.92;;
72105;SDS011;59975;47.646;18.318;2023-03-05T15:15:04;8.77;;;3.87;;
72105;SDS011;59975;47.646;18.318;2023-03-05T15:19:58;9.65;;;3.47;;
72105;SDS011;59975;47.646;18.318;2023-03-05T15:22:24;9.23;;;4.20;;
72105;SDS011;59975;47.646;18.318;2023-03-05T15:24:50;8.80;;;3.83;;
72105;SDS011;59975;47.646;18.318;2023-03-05T15:27:16;9.30;;;3.57;;
72105;SDS011;59975;47.646;18.318;2023-03-05T15:29:42;7.68;;;3.42;;
72105;SDS011;59975;47.646;18.318;2023-03-05T15:32:08;6.90;;;3.53;;
72105;SDS011;59975;47.646;18.318;2023-03-05T15:34:33;8.00;;;3.50;;
72105;SDS011;59975;47.646;18.318;2023-03-05T15:37:00;9.30;;;3.72;;
72105;SDS011;59975;47.646;18.318;2023-03-05T15:39:26;7.85;;;3.13;;
72105;SDS011;59975;47.646;18.318;2023-03-05T15:41:52;8.20;;;4.00;;
72105;SDS011;59975;47.646;18.318;2023-03-05T15:44:18;7.88;;;4.00;;
72105;SDS011;59975;47.646;18.318;2023-03-05T15:46:44;9.15;;;3.90;;
72105;SDS011;59975;47.646;18.318;2023-03-05T15:49:10;8.60;;;4.47;;
72105;SDS011;59975;47.646;18.318;2023-03-05T15:51:35;8.43;;;4.05;;
72105;SDS011;59975;47.646;18.318;2023-03-05T15:54:01;9.90;;;3.87;;
72105;SDS011;59975;47.646;18.318;2023-03-05T15:56:26;9.00;;;4.10;;
72105;SDS011;59975;47.646;18.318;2023-03-05T15:58:52;6.28;;;3.33;;
72105;SDS011;59975;47.646;18.318;2023-03-05T16:01:18;7.22;;;4.03;;